createdAt,value
2023-07-18T00:01:59.645Z,101476.75
2023-07-18T00:04:29.464Z,101475.81
2023-07-18T00:06:56.237Z,101468.16
2023-07-18T00:09:23.630Z,101470.69
2023-07-18T00:11:50.236Z,101459.91
2023-07-18T00:14:17.816Z,101452.91
2023-07-18T00:16:45.488Z,101471.06
2023-07-18T00:19:13.334Z,101463.72
2023-07-18T00:21:40.465Z,101466.28
2023-07-18T00:24:07.394Z,101470.34
2023-07-18T00:26:34.315Z,101456.25
2023-07-18T00:29:00.852Z,101468.22
2023-07-18T00:31:28.207Z,101468.84
2023-07-18T00:33:54.796Z,101473.22
2023-07-18T00:36:21.424Z,101470.75
2023-07-18T00:38:48.206Z,101460.03
2023-07-18T00:41:15.265Z,101480.00
2023-07-18T00:43:41.822Z,101474.81
2023-07-18T00:46:09.440Z,101474.66
2023-07-18T00:48:36.971Z,101477.22
2023-07-18T00:51:08.496Z,101476.06
2023-07-18T00:53:38.491Z,101476.91
2023-07-18T00:56:05.916Z,101484.34
2023-07-18T00:58:32.739Z,101459.66
2023-07-18T01:01:01.526Z,101478.25
2023-07-18T01:03:28.706Z,101488.25
2023-07-18T01:05:55.628Z,101472.63
2023-07-18T01:08:22.384Z,101478.38
2023-07-18T01:10:50.280Z,101473.13
2023-07-18T01:13:17.062Z,101468.72
2023-07-18T01:15:44.430Z,101459.81
2023-07-18T01:18:11.292Z,101462.50
2023-07-18T01:20:38.284Z,101469.38
2023-07-18T01:23:05.786Z,101441.56
2023-07-18T01:25:37.709Z,101466.72
2023-07-18T01:28:04.960Z,101459.72
2023-07-18T01:30:31.850Z,101464.03
2023-07-18T01:32:58.980Z,101451.94
2023-07-18T01:35:27.893Z,101453.34
2023-07-18T01:37:56.013Z,101455.19
2023-07-18T01:40:23.670Z,101460.09
2023-07-18T01:42:52.354Z,101448.56
2023-07-18T01:45:23.949Z,101457.41
2023-07-18T01:47:52.356Z,101459.88
2023-07-18T01:50:19.693Z,101459.00
2023-07-18T01:52:48.180Z,101414.09
2023-07-18T01:55:15.980Z,101459.63
2023-07-18T01:57:43.877Z,101457.78
2023-07-18T02:00:12.439Z,101454.28
2023-07-18T02:02:43.020Z,101409.47
2023-07-18T02:05:10.127Z,101450.88
2023-07-18T02:07:36.947Z,101436.13
2023-07-18T02:10:04.009Z,101412.25
2023-07-18T02:12:30.978Z,101442.44
2023-07-18T02:14:57.900Z,101439.72
2023-07-18T02:17:24.947Z,101413.00
2023-07-18T02:19:51.846Z,101429.00
2023-07-18T02:22:20.281Z,101438.63
2023-07-18T02:24:49.323Z,101441.19
2023-07-18T02:27:16.302Z,101426.63
2023-07-18T02:29:43.122Z,101402.03
2023-07-18T02:32:09.904Z,101431.00
2023-07-18T02:34:36.760Z,101425.03
2023-07-18T02:37:03.600Z,101414.91
2023-07-18T02:39:33.884Z,101436.19
2023-07-18T02:42:00.912Z,101432.50
2023-07-18T02:44:27.755Z,101442.63
2023-07-18T02:46:54.693Z,101440.75
2023-07-18T02:49:21.770Z,101436.47
2023-07-18T02:51:48.658Z,101432.72
2023-07-18T02:54:15.476Z,101440.50
2023-07-18T02:56:42.274Z,101415.91
2023-07-18T02:59:09.088Z,101442.81
2023-07-18T03:01:35.900Z,101443.00
2023-07-18T03:04:02.858Z,101452.28
2023-07-18T03:06:30.308Z,101439.94
2023-07-18T03:08:57.129Z,101450.44
2023-07-18T03:11:24.505Z,101450.53
2023-07-18T03:13:51.540Z,101447.91
2023-07-18T03:16:18.349Z,101453.06
2023-07-18T03:18:45.089Z,101447.03
2023-07-18T03:21:11.836Z,101447.84
2023-07-18T03:23:38.559Z,101447.84
2023-07-18T03:26:08.221Z,101442.31
2023-07-18T03:28:34.781Z,101449.31
2023-07-18T03:31:01.596Z,101463.25
2023-07-18T03:33:28.182Z,101454.66
2023-07-18T03:35:54.868Z,101461.56
2023-07-18T03:38:21.442Z,101446.63
2023-07-18T03:40:48.407Z,101423.75
2023-07-18T03:43:15.002Z,101426.56
2023-07-18T03:45:41.820Z,101448.53
2023-07-18T03:48:08.407Z,101450.53
2023-07-18T03:50:35.048Z,101462.78
2023-07-18T03:53:01.595Z,101467.16
2023-07-18T03:55:28.153Z,101459.63
2023-07-18T03:57:54.699Z,101439.81
2023-07-18T04:00:21.861Z,101425.91
2023-07-18T04:02:49.693Z,101455.72
2023-07-18T04:05:18.596Z,101404.25
2023-07-18T04:07:46.667Z,101455.00
2023-07-18T04:10:13.991Z,101452.56
2023-07-18T04:12:41.442Z,101452.56
2023-07-18T04:15:09.373Z,101465.78
2023-07-18T04:17:36.351Z,101461.66
2023-07-18T04:20:07.003Z,101458.53
2023-07-18T04:22:33.565Z,101458.72
2023-07-18T04:25:00.113Z,101433.50
2023-07-18T04:27:28.499Z,101438.72
2023-07-18T04:29:56.157Z,101458.22
2023-07-18T04:32:22.877Z,101458.22
2023-07-18T04:34:49.872Z,101447.72
2023-07-18T04:37:17.120Z,101467.00
2023-07-18T04:39:43.701Z,101448.44
2023-07-18T04:42:11.650Z,101470.50
2023-07-18T04:44:39.034Z,101472.28
2023-07-18T04:47:05.954Z,101454.22
2023-07-18T04:49:33.043Z,101466.84
2023-07-18T04:51:59.632Z,101464.53
2023-07-18T04:54:26.333Z,101435.81
2023-07-18T04:56:54.628Z,101464.13
2023-07-18T04:59:23.432Z,101462.63
2023-07-18T05:01:54.945Z,101468.81
2023-07-18T05:04:21.886Z,101454.91
2023-07-18T05:06:49.931Z,101460.88
2023-07-18T05:09:18.771Z,101461.97
2023-07-18T05:11:47.682Z,101476.91
2023-07-18T05:14:14.213Z,101450.22
2023-07-18T05:16:40.732Z,101460.22
2023-07-18T05:19:07.375Z,101448.53
2023-07-18T05:21:34.059Z,101473.41
2023-07-18T05:24:00.807Z,101471.28
2023-07-18T05:26:27.557Z,101470.84
2023-07-18T05:28:55.128Z,101470.13
2023-07-18T05:31:22.657Z,101470.47
2023-07-18T05:33:49.900Z,101463.09
2023-07-18T05:36:17.400Z,101460.66
2023-07-18T05:38:46.186Z,101477.28
2023-07-18T05:41:13.181Z,101454.19
2023-07-18T05:43:40.255Z,101471.81
2023-07-18T05:46:07.212Z,101441.47
2023-07-18T05:48:34.170Z,101442.63
2023-07-18T05:51:01.901Z,101454.66
2023-07-18T05:53:29.018Z,101461.97
2023-07-18T05:55:55.958Z,101460.38
2023-07-18T05:58:22.881Z,101446.00
2023-07-18T06:00:49.702Z,101465.63
2023-07-18T06:03:16.724Z,101449.47
2023-07-18T06:05:43.575Z,101474.06
2023-07-18T06:08:11.378Z,101463.19
2023-07-18T06:10:38.139Z,101445.03
2023-07-18T06:13:05.696Z,101471.56
2023-07-18T06:15:32.588Z,101470.31
2023-07-18T06:17:59.348Z,101449.94
2023-07-18T06:20:26.285Z,101465.78
2023-07-18T06:22:53.736Z,101470.50
2023-07-18T06:25:20.587Z,101477.56
2023-07-18T06:27:47.456Z,101465.72
2023-07-18T06:30:14.327Z,101477.13
2023-07-18T06:32:41.414Z,101469.34
2023-07-18T06:35:22.385Z,101479.94
2023-07-18T06:37:51.190Z,101470.19
2023-07-18T06:40:18.368Z,101478.44
2023-07-18T06:42:45.092Z,101491.38
2023-07-18T06:45:13.522Z,101487.28
2023-07-18T06:47:40.395Z,101484.91
2023-07-18T06:50:07.500Z,101486.91
2023-07-18T06:52:36.631Z,101466.31
2023-07-18T06:55:05.160Z,101479.56
2023-07-18T06:57:31.717Z,101470.34
2023-07-18T06:59:58.302Z,101479.06
2023-07-18T07:02:24.875Z,101470.63
2023-07-18T07:04:51.442Z,101475.91
2023-07-18T07:07:18.002Z,101470.94
2023-07-18T07:09:44.766Z,101479.53
2023-07-18T07:12:19.005Z,101472.63
2023-07-18T07:14:53.026Z,101474.44
2023-07-18T07:17:19.806Z,101473.72
2023-07-18T07:19:46.327Z,101461.63
2023-07-18T07:22:14.487Z,101474.06
2023-07-18T07:24:41.561Z,101480.31
2023-07-18T07:27:08.341Z,101474.53
2023-07-18T07:29:34.913Z,101477.66
2023-07-18T07:32:01.581Z,101478.69
2023-07-18T07:34:30.329Z,101473.63
2023-07-18T07:36:57.882Z,101487.72
2023-07-18T07:39:24.478Z,101474.94
2023-07-18T07:41:51.133Z,101462.31
2023-07-18T07:44:17.660Z,101482.66
2023-07-18T07:46:44.537Z,101482.19
2023-07-18T07:49:12.600Z,101470.31
2023-07-18T07:51:39.221Z,101482.72
2023-07-18T07:54:05.913Z,101475.19
2023-07-18T07:56:32.516Z,101462.31
2023-07-18T07:59:10.527Z,101475.09
2023-07-18T08:01:38.480Z,101472.09
2023-07-18T08:04:05.260Z,101456.97
2023-07-18T08:06:31.954Z,101449.28
2023-07-18T08:08:58.630Z,101465.59
2023-07-18T08:11:25.181Z,101461.06
2023-07-18T08:13:54.763Z,101458.91
2023-07-18T08:16:21.876Z,101458.28
2023-07-18T08:18:48.520Z,101449.09
2023-07-18T08:21:15.234Z,101446.91
2023-07-18T08:23:41.806Z,101448.13
2023-07-18T08:26:10.517Z,101449.53
2023-07-18T08:28:39.895Z,101448.81
2023-07-18T08:31:06.698Z,101410.59
2023-07-18T08:33:34.132Z,101425.66
2023-07-18T08:36:00.936Z,101434.97
2023-07-18T08:38:27.711Z,101445.13
2023-07-18T08:40:54.361Z,101439.72
2023-07-18T08:43:21.672Z,101431.25
2023-07-18T08:45:48.933Z,101440.25
2023-07-18T08:48:18.679Z,101425.09
2023-07-18T08:50:48.166Z,101396.97
2023-07-18T08:53:14.783Z,101435.00
2023-07-18T08:55:41.630Z,101415.00
2023-07-18T08:58:09.211Z,101403.97
2023-07-18T09:00:35.776Z,101430.56
2023-07-18T09:03:02.655Z,101405.19
2023-07-18T09:05:35.000Z,101404.91
2023-07-18T09:08:03.521Z,101406.19
2023-07-18T09:10:30.646Z,101408.31
2023-07-18T09:13:02.173Z,101388.63
2023-07-18T09:15:30.186Z,101401.91
2023-07-18T09:17:58.584Z,101408.97
2023-07-18T09:20:30.663Z,101403.03
2023-07-18T09:22:58.770Z,101396.28
2023-07-18T09:25:27.039Z,101387.75
2023-07-18T09:27:58.258Z,101401.78
2023-07-18T09:30:29.732Z,101406.25
2023-07-18T09:32:56.717Z,101380.34
2023-07-18T09:35:28.022Z,101395.97
2023-07-18T09:37:54.931Z,101389.06
2023-07-18T09:40:21.943Z,101367.31
2023-07-18T09:42:50.087Z,101396.66
2023-07-18T09:45:18.106Z,101396.53
2023-07-18T09:47:45.509Z,101380.81
2023-07-18T09:50:14.528Z,101400.84
2023-07-18T09:52:43.594Z,101408.78
2023-07-18T09:55:12.795Z,101391.56
2023-07-18T09:57:41.467Z,101391.66
2023-07-18T10:00:13.027Z,101390.81
2023-07-18T10:02:40.850Z,101386.47
2023-07-18T10:05:11.040Z,101381.28
2023-07-18T10:07:39.862Z,101390.78
2023-07-18T10:10:11.956Z,101385.47
2023-07-18T10:13:01.444Z,101395.84
2023-07-18T10:15:29.637Z,101377.69
2023-07-18T10:18:16.327Z,101378.47
2023-07-18T10:20:57.592Z,101373.25
2023-07-18T10:23:43.295Z,101380.19
2023-07-18T10:26:10.687Z,101365.56
2023-07-18T10:28:45.372Z,101376.00
2023-07-18T10:31:29.465Z,101370.06
2023-07-18T10:34:15.205Z,101372.63
2023-07-18T10:36:55.703Z,101367.44
2023-07-18T10:39:40.652Z,101363.97
2023-07-18T10:42:08.416Z,101352.69
2023-07-18T10:44:38.207Z,101366.56
2023-07-18T10:47:19.095Z,101361.38
2023-07-18T10:49:48.448Z,101356.19
2023-07-18T10:52:16.679Z,101329.38
2023-07-18T10:54:46.999Z,101357.03
2023-07-18T10:57:14.981Z,101331.84
2023-07-18T10:59:45.723Z,101350.75
2023-07-18T11:02:13.111Z,101347.16
2023-07-18T11:04:39.896Z,101343.69
2023-07-18T11:07:06.603Z,101342.84
2023-07-18T11:09:33.429Z,101335.88
2023-07-18T11:12:01.237Z,101341.09
2023-07-18T11:14:38.296Z,101310.19
2023-07-18T11:17:11.718Z,101325.91
2023-07-18T11:19:39.060Z,101312.88
2023-07-18T11:22:07.045Z,101298.84
2023-07-18T11:24:36.489Z,101316.06
2023-07-18T11:27:20.705Z,101313.47
2023-07-18T11:30:05.828Z,101310.06
2023-07-18T11:32:39.037Z,101285.94
2023-07-18T11:35:08.689Z,101310.13
2023-07-18T11:37:42.513Z,101308.38
2023-07-18T11:40:11.240Z,101310.13
2023-07-18T11:42:43.917Z,101311.94
2023-07-18T11:45:11.121Z,101303.34
2023-07-18T11:47:43.983Z,101279.97
2023-07-18T11:50:11.741Z,101294.56
2023-07-18T11:52:38.562Z,101293.56
2023-07-18T11:55:05.551Z,101299.38
2023-07-18T11:57:32.087Z,101292.16
2023-07-18T11:59:59.699Z,101286.09
2023-07-18T12:02:26.474Z,101298.41
2023-07-18T12:04:53.737Z,101268.38
2023-07-18T12:07:20.470Z,101285.72
2023-07-18T12:09:48.800Z,101290.13
2023-07-18T12:12:15.402Z,101287.75
2023-07-18T12:14:42.997Z,101252.34
2023-07-18T12:17:09.702Z,101294.75
2023-07-18T12:19:36.414Z,101284.34
2023-07-18T12:22:03.147Z,101277.44
2023-07-18T12:24:29.784Z,101277.44
2023-07-18T12:26:56.396Z,101285.19
2023-07-18T12:29:23.534Z,101281.75
2023-07-18T12:31:53.245Z,101281.75
2023-07-18T12:34:20.813Z,101278.22
2023-07-18T12:36:50.216Z,101265.19
2023-07-18T12:39:18.875Z,101265.81
2023-07-18T12:41:45.413Z,101261.97
2023-07-18T12:44:19.745Z,101257.38
2023-07-18T12:46:47.891Z,101257.94
2023-07-18T12:49:15.802Z,101263.19
2023-07-18T12:51:42.605Z,101254.94
2023-07-18T12:54:09.859Z,101253.53
2023-07-18T12:56:38.827Z,101246.84
2023-07-18T12:59:07.186Z,101240.97
2023-07-18T13:01:34.064Z,101245.38
2023-07-18T13:04:04.476Z,101241.94
2023-07-18T13:06:31.219Z,101241.09
2023-07-18T13:08:58.073Z,101243.72
2023-07-18T13:11:24.852Z,101234.19
2023-07-18T13:13:52.811Z,101241.09
2023-07-18T13:16:19.905Z,101228.13
2023-07-18T13:18:47.070Z,101226.34
2023-07-18T13:21:14.147Z,101231.53
2023-07-18T13:23:40.961Z,101217.63
2023-07-18T13:26:10.641Z,101232.28
2023-07-18T13:28:37.567Z,101221.88
2023-07-18T13:31:04.385Z,101217.47
2023-07-18T13:33:31.095Z,101219.16
2023-07-18T13:35:59.253Z,101222.56
2023-07-18T13:38:26.018Z,101232.03
2023-07-18T13:40:53.953Z,101223.31
2023-07-18T13:43:20.777Z,101218.97
2023-07-18T13:45:47.700Z,101212.03
2023-07-18T13:48:16.510Z,101213.69
2023-07-18T13:50:43.385Z,101211.09
2023-07-18T13:53:10.179Z,101211.06
2023-07-18T13:55:37.231Z,101211.00
2023-07-18T13:58:13.387Z,101212.69
2023-07-18T14:00:40.908Z,101223.00
2023-07-18T14:03:19.702Z,101218.66
2023-07-18T14:05:54.361Z,101210.84
2023-07-18T14:08:22.644Z,101211.69
2023-07-18T14:10:49.518Z,101209.06
2023-07-18T14:13:16.950Z,101211.63
2023-07-18T14:15:43.560Z,101197.66
2023-07-18T14:18:12.156Z,101208.88
2023-07-18T14:20:38.962Z,101217.41
2023-07-18T14:23:05.624Z,101219.09
2023-07-18T14:25:32.368Z,101197.38
2023-07-18T14:27:59.446Z,101209.44
2023-07-18T14:30:26.560Z,101217.09
2023-07-18T14:32:53.165Z,101223.88
2023-07-18T14:35:20.052Z,101209.91
2023-07-18T14:37:47.914Z,101214.22
2023-07-18T14:40:14.549Z,101207.25
2023-07-18T14:42:41.654Z,101202.91
2023-07-18T14:45:11.146Z,101201.16
2023-07-18T14:47:37.801Z,101196.78
2023-07-18T14:50:05.093Z,101182.88
2023-07-18T14:52:34.738Z,101179.44
2023-07-18T14:55:01.633Z,101192.38
2023-07-18T14:57:28.228Z,101184.66
2023-07-18T14:59:54.908Z,101161.28
2023-07-18T15:02:22.194Z,101185.66
2023-07-18T15:04:50.008Z,101185.75
2023-07-18T15:07:16.595Z,101180.72
2023-07-18T15:09:44.312Z,101171.28
2023-07-18T15:12:11.039Z,101173.97
2023-07-18T15:14:38.057Z,101178.31
2023-07-18T15:17:06.285Z,101172.31
2023-07-18T15:19:33.416Z,101170.56
2023-07-18T15:22:01.995Z,101151.50
2023-07-18T15:24:28.524Z,101169.63
2023-07-18T15:26:55.504Z,101168.72
2023-07-18T15:29:22.395Z,101164.41
2023-07-18T15:31:49.215Z,101162.69
2023-07-18T15:34:16.140Z,101157.53
2023-07-18T15:36:47.264Z,101150.63
2023-07-18T15:39:13.902Z,101152.38
2023-07-18T15:41:40.511Z,101152.38
2023-07-18T15:44:07.105Z,101140.28
2023-07-18T15:46:37.646Z,101146.41
2023-07-18T15:49:05.221Z,101135.19
2023-07-18T15:51:32.239Z,101129.19
2023-07-18T15:53:58.854Z,101134.41
2023-07-18T15:56:25.455Z,101130.97
2023-07-18T15:58:53.281Z,101124.09
2023-07-18T16:01:19.900Z,101130.19
2023-07-18T16:03:46.818Z,101116.34
2023-07-18T16:06:14.435Z,101098.22
2023-07-18T16:08:41.359Z,101104.25
2023-07-18T16:11:07.932Z,101110.25
2023-07-18T16:13:35.639Z,101107.63
2023-07-18T16:16:02.590Z,101100.75
2023-07-18T16:18:29.384Z,101095.53
2023-07-18T16:20:56.201Z,101095.47
2023-07-18T16:23:22.949Z,101098.03
2023-07-18T16:25:49.878Z,101102.25
2023-07-18T16:28:16.699Z,101091.91
2023-07-18T16:30:43.767Z,101087.53
2023-07-18T16:33:10.573Z,101089.25
2023-07-18T16:35:37.669Z,101083.16
2023-07-18T16:38:04.602Z,101082.25
2023-07-18T16:40:31.423Z,101080.47
2023-07-18T16:42:58.173Z,101076.97
2023-07-18T16:45:24.966Z,101079.47
2023-07-18T16:47:51.794Z,101082.88
2023-07-18T16:50:18.690Z,101064.66
2023-07-18T16:52:46.365Z,101080.28
2023-07-18T16:55:13.225Z,101088.84
2023-07-18T16:57:39.987Z,101074.19
2023-07-18T17:00:07.393Z,101071.56
2023-07-18T17:02:34.903Z,101059.41
2023-07-18T17:05:01.877Z,101062.00
2023-07-18T17:07:28.651Z,101059.38
2023-07-18T17:09:55.419Z,101048.94
2023-07-18T17:12:22.263Z,101063.56
2023-07-18T17:14:48.998Z,101066.06
2023-07-18T17:17:15.831Z,101067.78
2023-07-18T17:19:53.455Z,101071.22
2023-07-18T17:22:29.519Z,101069.50
2023-07-18T17:24:56.140Z,101062.59
2023-07-18T17:27:23.312Z,101062.59
2023-07-18T17:29:50.155Z,101064.28
2023-07-18T17:32:18.383Z,101057.38
2023-07-18T17:34:45.082Z,101059.09
2023-07-18T17:37:11.628Z,101053.94
2023-07-18T17:39:38.197Z,101036.59
2023-07-18T17:42:08.182Z,101050.47
2023-07-18T17:44:35.603Z,101047.84
2023-07-18T17:47:02.144Z,101045.19
2023-07-18T17:49:28.708Z,101057.31
2023-07-18T17:51:55.279Z,101057.28
2023-07-18T17:54:22.373Z,101052.06
2023-07-18T17:56:49.094Z,101050.25
2023-07-18T17:59:15.646Z,101053.69
2023-07-18T18:01:42.732Z,101041.56
2023-07-18T18:04:11.081Z,101043.31
2023-07-18T18:06:37.713Z,101046.72
2023-07-18T18:09:04.366Z,101045.72
2023-07-18T18:11:31.188Z,101032.69
2023-07-18T18:14:00.751Z,101038.75
2023-07-18T18:16:27.588Z,101033.53
2023-07-18T18:18:54.168Z,101037.88
2023-07-18T18:21:21.496Z,101029.25
2023-07-18T18:23:48.893Z,101028.38
2023-07-18T18:26:15.823Z,101029.28
2023-07-18T18:28:42.430Z,101018.06
2023-07-18T18:31:09.029Z,101022.38
2023-07-18T18:33:35.649Z,101002.47
2023-07-18T18:36:02.574Z,101026.63
2023-07-18T18:38:29.150Z,101013.63
2023-07-18T18:40:55.743Z,101019.63
2023-07-18T18:43:22.378Z,101004.00
2023-07-18T18:45:49.008Z,101012.63
2023-07-18T18:48:15.528Z,101022.97
2023-07-18T18:50:42.087Z,101022.88
2023-07-18T18:53:08.915Z,101027.09
2023-07-18T18:55:35.816Z,101022.72
2023-07-18T18:58:02.643Z,101022.66
2023-07-18T19:00:29.577Z,100999.16
2023-07-18T19:02:58.689Z,101014.75
2023-07-18T19:05:25.458Z,101024.13
2023-07-18T19:07:52.035Z,101036.22
2023-07-18T19:10:18.568Z,101034.47
2023-07-18T19:12:45.084Z,101037.00
2023-07-18T19:15:11.926Z,101030.00
2023-07-18T19:17:38.682Z,101029.09
2023-07-18T19:20:06.275Z,101029.91
2023-07-18T19:22:33.089Z,101019.34
2023-07-18T19:24:59.885Z,101028.00
2023-07-18T19:27:27.344Z,101027.00
2023-07-18T19:29:54.261Z,101029.47
2023-07-18T19:32:21.200Z,101016.50
2023-07-18T19:34:48.050Z,101025.03
2023-07-18T19:37:14.926Z,101018.94
2023-07-18T19:39:41.905Z,101016.28
2023-07-18T19:42:09.155Z,101011.00
2023-07-18T19:44:36.031Z,101001.44
2023-07-18T19:47:02.991Z,101009.22
2023-07-18T19:49:30.040Z,100998.63
2023-07-18T19:51:59.676Z,101016.78
2023-07-18T19:54:27.088Z,101004.56
2023-07-18T19:56:54.384Z,101014.88
2023-07-18T19:59:21.455Z,101021.66
2023-07-18T20:01:48.636Z,101015.44
2023-07-18T20:04:15.813Z,101015.19
2023-07-18T20:06:42.742Z,101027.09
2023-07-18T20:09:09.671Z,101024.31
2023-07-18T20:11:36.569Z,101022.41
2023-07-18T20:14:03.384Z,101020.53
2023-07-18T20:16:31.405Z,101003.16
2023-07-18T20:19:02.537Z,101022.97
2023-07-18T20:21:30.843Z,101018.50
2023-07-18T20:23:58.217Z,101011.34
2023-07-18T20:26:25.746Z,101027.63
2023-07-18T20:28:52.714Z,101019.81
2023-07-18T20:31:20.237Z,101022.34
2023-07-18T20:33:47.804Z,101006.72
2023-07-18T20:36:14.541Z,101014.38
2023-07-18T20:38:41.346Z,101019.41
2023-07-18T20:41:10.299Z,101001.25
2023-07-18T20:43:37.190Z,101004.66
2023-07-18T20:46:04.967Z,101009.88
2023-07-18T20:48:34.868Z,100996.94
2023-07-18T20:51:01.474Z,101002.88
2023-07-18T20:53:30.254Z,100997.56
2023-07-18T20:55:57.290Z,100984.31
2023-07-18T20:58:24.401Z,100983.34
2023-07-18T21:00:51.085Z,100992.69
2023-07-18T21:03:17.830Z,100991.66
2023-07-18T21:05:45.278Z,100987.28
2023-07-18T21:08:12.876Z,100994.03
2023-07-18T21:10:39.436Z,100984.25
2023-07-18T21:13:08.243Z,100977.41
2023-07-18T21:15:39.311Z,100986.88
2023-07-18T21:18:05.937Z,100966.91
2023-07-18T21:20:32.509Z,100989.34
2023-07-18T21:23:00.620Z,100978.22
2023-07-18T21:25:28.459Z,100979.94
2023-07-18T21:27:55.105Z,100976.44
2023-07-18T21:30:21.812Z,100970.47
2023-07-18T21:32:48.388Z,100964.22
2023-07-18T21:35:15.971Z,100976.50
2023-07-18T21:37:42.567Z,100959.19
2023-07-18T21:40:09.908Z,100970.47
2023-07-18T21:42:36.455Z,100976.41
2023-07-18T21:45:03.104Z,100980.84
2023-07-18T21:47:29.683Z,100976.50
2023-07-18T21:49:56.657Z,100973.75
2023-07-18T21:52:23.824Z,100975.59
2023-07-18T21:54:50.397Z,100968.59
2023-07-18T21:57:17.603Z,100978.97
2023-07-18T21:59:44.456Z,100961.63
2023-07-18T22:02:12.675Z,100980.66
2023-07-18T22:04:39.805Z,100981.41
2023-07-18T22:07:09.068Z,100970.88
2023-07-18T22:09:36.131Z,100980.47
2023-07-18T22:12:06.560Z,100979.56
2023-07-18T22:14:33.202Z,100970.22
2023-07-18T22:16:59.907Z,100973.66
2023-07-18T22:19:26.730Z,100977.84
2023-07-18T22:21:53.277Z,100963.16
2023-07-18T22:24:19.894Z,100971.81
2023-07-18T22:26:46.479Z,100979.50
2023-07-18T22:29:13.075Z,100977.72
2023-07-18T22:31:39.738Z,100968.31
2023-07-18T22:34:06.437Z,100960.50
2023-07-18T22:36:32.996Z,100959.72
2023-07-18T22:38:59.567Z,100945.94
2023-07-18T22:41:26.601Z,100951.19
2023-07-18T22:43:53.752Z,100950.22
2023-07-18T22:46:20.507Z,100944.03
2023-07-18T22:48:47.269Z,100959.53
2023-07-18T22:51:13.982Z,100953.44
2023-07-18T22:53:40.707Z,100963.72
2023-07-18T22:56:07.450Z,100955.91
2023-07-18T22:58:34.175Z,100950.78
2023-07-18T23:01:00.954Z,100952.41
2023-07-18T23:03:27.838Z,100955.78
2023-07-18T23:05:54.690Z,100955.69
2023-07-18T23:08:21.223Z,100953.91
2023-07-18T23:10:48.029Z,100947.09
2023-07-18T23:13:16.373Z,100936.59
2023-07-18T23:15:43.252Z,100946.06
2023-07-18T23:18:09.878Z,100943.56
2023-07-18T23:20:36.532Z,100933.25
2023-07-18T23:23:04.463Z,100933.19
2023-07-18T23:25:31.148Z,100934.03
2023-07-18T23:27:57.696Z,100931.47
2023-07-18T23:30:24.367Z,100915.97
2023-07-18T23:32:50.998Z,100921.22
2023-07-18T23:35:17.807Z,100913.53
2023-07-18T23:37:44.406Z,100918.59
2023-07-18T23:40:10.972Z,100924.53
2023-07-18T23:42:38.873Z,100929.59
2023-07-18T23:45:05.907Z,100912.34
2023-07-18T23:47:32.457Z,100915.69
2023-07-18T23:49:59.110Z,100923.50
2023-07-18T23:52:25.638Z,100917.47
2023-07-18T23:54:52.234Z,100903.78
2023-07-18T23:57:18.758Z,100893.41
2023-07-18T23:59:45.316Z,100910.75
